createdAt,value
2023-04-15T00:02:22.194Z,98045.13
2023-04-15T00:04:54.845Z,98039.47
2023-04-15T00:07:28.480Z,98042.09
2023-04-15T00:10:01.426Z,98046.38
2023-04-15T00:12:33.485Z,98047.41
2023-04-15T00:15:06.480Z,98052.38
2023-04-15T00:17:40.251Z,98055.00
2023-04-15T00:20:13.261Z,98051.81
2023-04-15T00:22:45.256Z,98046.78
2023-04-15T00:25:18.071Z,98051.31
2023-04-15T00:27:51.142Z,98060.66
2023-04-15T00:30:23.166Z,98060.97
2023-04-15T00:32:56.479Z,98055.22
2023-04-15T00:35:28.629Z,98065.72
2023-04-15T00:42:24.373Z,98070.84
2023-04-15T00:44:54.855Z,98082.59
2023-04-15T00:47:27.332Z,98080.41
2023-04-15T00:50:00.560Z,98087.50
2023-04-15T00:52:33.524Z,98093.72
2023-04-15T00:55:06.591Z,98095.50
2023-04-15T00:57:42.364Z,98104.03
2023-04-15T01:04:07.242Z,98105.19
2023-04-15T01:06:41.294Z,98111.91
2023-04-15T01:09:16.154Z,98114.44
2023-04-15T01:11:50.096Z,98120.09
2023-04-15T01:14:23.175Z,98118.31
2023-04-15T01:16:57.168Z,98127.34
2023-04-15T01:19:30.198Z,98133.97
2023-04-15T01:22:03.382Z,98131.84
2023-04-15T01:24:39.442Z,98134.28
2023-04-15T01:27:12.569Z,98142.47
2023-04-15T01:29:46.238Z,98150.88
2023-04-15T01:32:19.603Z,98152.22
2023-04-15T01:34:53.850Z,98153.16
2023-04-15T01:37:28.225Z,98151.47
2023-04-15T01:40:01.626Z,98151.63
2023-04-15T01:42:35.953Z,98154.09
2023-04-15T01:45:10.127Z,98147.78
2023-04-15T01:47:43.502Z,98153.63
2023-04-15T01:50:19.505Z,98153.69
2023-04-15T01:52:53.115Z,98156.66
2023-04-15T01:55:25.753Z,98161.31
2023-04-15T01:57:58.649Z,98153.56
2023-04-15T02:00:33.528Z,98167.63
2023-04-15T02:03:06.725Z,98160.38
2023-04-15T02:05:40.074Z,98158.38
2023-04-15T02:08:13.242Z,98161.88
2023-04-15T02:10:46.852Z,98163.28
2023-04-15T02:13:20.296Z,98168.03
2023-04-15T02:15:55.379Z,98157.66
2023-04-15T02:18:26.750Z,98163.31
2023-04-15T02:21:01.255Z,98169.41
2023-04-15T02:23:35.643Z,98167.72
2023-04-15T02:26:08.937Z,98169.09
2023-04-15T02:28:41.205Z,98171.97
2023-04-15T02:31:14.680Z,98184.16
2023-04-15T02:33:48.367Z,98189.50
2023-04-15T02:36:21.450Z,98183.47
2023-04-15T02:38:54.953Z,98188.06
2023-04-15T02:41:30.303Z,98192.31
2023-04-15T02:44:03.770Z,98193.75
2023-04-15T02:46:37.191Z,98195.50
2023-04-15T02:49:09.566Z,98197.63
2023-04-15T02:51:43.956Z,98202.09
2023-04-15T02:54:15.552Z,98209.56
2023-04-15T02:56:49.453Z,98212.28
2023-04-15T02:59:21.763Z,98205.38
2023-04-15T03:01:52.856Z,98211.50
2023-04-15T03:04:22.184Z,98202.75
2023-04-15T03:06:51.367Z,98207.22
2023-04-15T03:09:20.709Z,98209.66
2023-04-15T03:11:50.009Z,98214.88
2023-04-15T03:14:19.904Z,98218.34
2023-04-15T03:16:51.492Z,98218.47
2023-04-15T03:19:21.149Z,98220.16
2023-04-15T03:21:50.099Z,98228.19
2023-04-15T03:24:21.922Z,98226.41
2023-04-15T03:26:51.148Z,98222.34
2023-04-15T03:29:20.717Z,98234.59
2023-04-15T03:31:50.333Z,98232.94
2023-04-15T03:34:19.677Z,98232.31
2023-04-15T03:36:49.140Z,98240.72
2023-04-15T03:39:18.171Z,98241.06
2023-04-15T03:41:47.961Z,98243.34
2023-04-15T03:44:17.554Z,98250.19
2023-04-15T03:46:46.776Z,98255.44
2023-04-15T03:49:16.146Z,98244.00
2023-04-15T03:51:45.957Z,98258.03
2023-04-15T03:54:16.264Z,98261.66
2023-04-15T03:56:45.591Z,98270.53
2023-04-15T03:59:14.496Z,98261.47
2023-04-15T04:01:43.914Z,98267.09
2023-04-15T04:04:13.495Z,98267.63
2023-04-15T04:06:43.117Z,98264.56
2023-04-15T04:09:12.178Z,98264.97
2023-04-15T04:11:41.471Z,98270.38
2023-04-15T04:14:11.523Z,98264.75
2023-04-15T04:16:40.741Z,98273.47
2023-04-15T04:19:10.235Z,98273.31
2023-04-15T04:21:40.609Z,98272.03
2023-04-15T04:24:09.923Z,98270.69
2023-04-15T04:26:39.032Z,98277.09
2023-04-15T04:29:08.353Z,98278.88
2023-04-15T04:31:38.084Z,98282.97
2023-04-15T04:34:07.728Z,98279.91
2023-04-15T04:36:36.849Z,98279.25
2023-04-15T04:39:06.067Z,98288.06
2023-04-15T04:41:35.290Z,98290.41
2023-04-15T04:44:04.674Z,98285.78
2023-04-15T04:46:34.508Z,98289.56
2023-04-15T04:49:03.728Z,98292.50
2023-04-15T04:51:33.506Z,98298.50
2023-04-15T04:54:03.813Z,98298.72
2023-04-15T04:56:33.194Z,98291.84
2023-04-15T04:59:03.613Z,98296.38
2023-04-15T05:01:33.054Z,98293.19
2023-04-15T05:04:02.380Z,98298.38
2023-04-15T05:06:32.651Z,98296.28
2023-04-15T05:09:02.690Z,98291.56
2023-04-15T05:11:32.401Z,98292.03
2023-04-15T05:14:03.415Z,98292.13
2023-04-15T05:16:32.815Z,98289.13
2023-04-15T05:19:02.724Z,98293.84
2023-04-15T05:21:32.929Z,98293.75
2023-04-15T05:24:02.026Z,98295.06
2023-04-15T05:26:31.300Z,98290.84
2023-04-15T05:29:00.999Z,98287.28
2023-04-15T05:31:30.440Z,98287.28
2023-04-15T05:33:59.576Z,98286.50
2023-04-15T05:36:29.813Z,98288.09
2023-04-15T05:38:58.946Z,98286.84
2023-04-15T05:41:28.360Z,98288.88
2023-04-15T05:43:57.425Z,98270.66
2023-04-15T05:46:26.727Z,98277.72
2023-04-15T05:48:58.392Z,98278.44
2023-04-15T05:51:28.396Z,98281.47
2023-04-15T05:53:57.370Z,98280.81
2023-04-15T05:56:28.256Z,98275.66
2023-04-15T05:58:57.574Z,98282.19
2023-04-15T06:01:27.308Z,98274.53
2023-04-15T06:03:56.537Z,98281.88
2023-04-15T06:06:26.197Z,98279.88
2023-04-15T06:08:57.121Z,98279.88
2023-04-15T06:11:27.894Z,98277.84
2023-04-15T06:13:57.854Z,98274.47
2023-04-15T06:16:27.217Z,98270.31
2023-04-15T06:18:56.548Z,98264.75
2023-04-15T06:21:25.735Z,98262.56
2023-04-15T06:23:54.898Z,98260.03
2023-04-15T06:26:24.253Z,98256.38
2023-04-15T06:28:53.902Z,98243.97
2023-04-15T06:31:23.286Z,98247.28
2023-04-15T06:33:52.553Z,98242.84
2023-04-15T06:36:22.269Z,98244.50
2023-04-15T06:38:51.596Z,98239.16
2023-04-15T06:41:20.828Z,98236.41
2023-04-15T06:43:50.104Z,98241.84
2023-04-15T06:46:19.265Z,98225.06
2023-04-15T06:48:48.503Z,98228.63
2023-04-15T06:51:17.912Z,98223.00
2023-04-15T06:53:46.994Z,98221.78
2023-04-15T06:56:16.207Z,98223.72
2023-04-15T07:02:35.080Z,98215.44
2023-04-15T07:05:04.156Z,98218.59
2023-04-15T07:07:33.446Z,98211.56
2023-04-15T07:10:04.671Z,98210.75
2023-04-15T07:12:33.860Z,98207.63
2023-04-15T07:15:03.541Z,98207.28
2023-04-15T07:17:33.295Z,98205.25
2023-04-15T07:20:02.553Z,98205.25
2023-04-15T07:22:32.204Z,98194.56
2023-04-15T07:25:11.328Z,98191.69
2023-04-15T07:27:41.442Z,98191.38
2023-04-15T07:30:11.616Z,98194.19
2023-04-15T07:32:41.272Z,98188.38
2023-04-15T07:35:10.984Z,98183.91
2023-04-15T07:37:39.860Z,98175.13
2023-04-15T07:40:10.211Z,98180.94
2023-04-15T07:42:41.179Z,98181.09
2023-04-15T07:45:11.098Z,98176.38
2023-04-15T07:47:41.506Z,98173.06
2023-04-15T07:50:12.606Z,98177.78
2023-04-15T07:52:41.778Z,98168.59
2023-04-15T07:55:11.916Z,98169.56
2023-04-15T07:57:40.973Z,98162.13
2023-04-15T08:00:10.998Z,98156.13
2023-04-15T08:02:44.168Z,98154.44
2023-04-15T08:05:15.096Z,98151.59
2023-04-15T08:07:44.447Z,98143.34
2023-04-15T08:10:14.145Z,98136.09
2023-04-15T08:12:43.931Z,98140.03
2023-04-15T08:15:14.071Z,98127.75
2023-04-15T08:17:43.540Z,98130.06
2023-04-15T08:20:13.171Z,98124.81
2023-04-15T08:22:42.737Z,98116.53
2023-04-15T08:25:15.747Z,98114.03
2023-04-15T08:27:47.909Z,98109.31
2023-04-15T08:30:17.342Z,98103.56
2023-04-15T08:32:49.741Z,98098.03
2023-04-15T08:35:19.445Z,98101.56
2023-04-15T08:37:48.502Z,98096.69
2023-04-15T08:40:18.022Z,98087.75
2023-04-15T08:42:54.535Z,98079.06
2023-04-15T08:45:24.657Z,98079.34
2023-04-15T08:47:57.935Z,98068.44
2023-04-15T08:50:30.645Z,98073.03
2023-04-15T08:53:03.484Z,98071.00
2023-04-15T08:55:37.602Z,98057.25
2023-04-15T08:58:07.568Z,98062.94
2023-04-15T09:00:37.175Z,98055.94
2023-04-15T09:03:10.292Z,98049.88
2023-04-15T09:05:40.358Z,98049.16
2023-04-15T09:08:09.672Z,98047.13
2023-04-15T09:14:53.216Z,98034.44
2023-04-15T09:17:22.687Z,98023.84
2023-04-15T09:20:08.904Z,98021.66
2023-04-15T09:22:41.901Z,98014.28
2023-04-15T09:25:17.314Z,98007.22
2023-04-15T09:32:16.752Z,97997.91
2023-04-15T09:34:45.989Z,97997.41
2023-04-15T09:37:31.348Z,97991.94
2023-04-15T09:40:01.499Z,97993.38
2023-04-15T09:42:31.040Z,97985.09
2023-04-15T09:45:13.246Z,97978.81
2023-04-15T09:47:42.788Z,97973.75
2023-04-15T09:50:12.636Z,97959.63
2023-04-15T09:52:45.712Z,97957.59
2023-04-15T09:55:15.835Z,97955.97
2023-04-15T09:57:50.372Z,97953.97
2023-04-15T10:00:19.889Z,97948.84
2023-04-15T10:02:50.056Z,97945.50
2023-04-15T10:05:19.912Z,97941.81
2023-04-15T10:07:49.270Z,97940.47
2023-04-15T10:10:19.183Z,97934.25
2023-04-15T10:12:48.175Z,97932.16
2023-04-15T10:15:21.493Z,97933.53
2023-04-15T10:17:52.164Z,97929.03
2023-04-15T10:20:22.414Z,97922.38
2023-04-15T10:22:53.282Z,97919.91
2023-04-15T10:25:23.079Z,97928.97
2023-04-15T10:27:53.808Z,97926.31
2023-04-15T10:30:23.881Z,97913.94
2023-04-15T10:32:54.306Z,97915.78
2023-04-15T10:35:24.650Z,97913.56
2023-04-15T10:37:53.668Z,97920.13
2023-04-15T10:40:32.356Z,97913.00
2023-04-15T10:43:02.835Z,97906.75
2023-04-15T10:45:37.759Z,97901.47
2023-04-15T10:48:09.906Z,97903.13
2023-04-15T10:50:40.351Z,97901.44
2023-04-15T10:53:12.308Z,97894.44
2023-04-15T10:55:41.692Z,97889.47
2023-04-15T10:58:11.894Z,97900.53
2023-04-15T11:04:59.208Z,97887.06
2023-04-15T11:07:50.065Z,97893.78
2023-04-15T11:10:22.289Z,97896.22
2023-04-15T11:12:59.029Z,97886.63
2023-04-15T11:15:47.380Z,97886.63
2023-04-15T11:18:21.406Z,97884.97
2023-04-15T11:20:57.456Z,97884.75
2023-04-15T11:23:52.514Z,97889.66
2023-04-15T11:26:28.220Z,97881.44
2023-04-15T11:28:58.602Z,97879.69
2023-04-15T11:31:30.360Z,97882.66
2023-04-15T11:34:04.322Z,97882.28
2023-04-15T11:36:34.258Z,97879.97
2023-04-15T11:39:05.014Z,97877.13
2023-04-15T11:41:34.369Z,97879.44
2023-04-15T11:44:03.996Z,97881.81
2023-04-15T11:46:33.225Z,97875.34
2023-04-15T11:49:02.747Z,97874.16
2023-04-15T11:51:36.141Z,97872.84
2023-04-15T11:54:06.020Z,97879.72
2023-04-15T11:56:35.224Z,97872.66
2023-04-15T11:59:05.517Z,97867.16
2023-04-15T12:01:40.553Z,97875.25
2023-04-15T12:04:25.890Z,97871.56
2023-04-15T12:06:55.431Z,97871.19
2023-04-15T12:09:24.554Z,97868.59
2023-04-15T12:11:55.028Z,97872.31
2023-04-15T12:14:33.706Z,97876.81
2023-04-15T12:17:06.012Z,97864.91
2023-04-15T12:19:40.424Z,97867.47
2023-04-15T12:22:14.990Z,97863.22
2023-04-15T12:24:48.856Z,97853.97
2023-04-15T12:27:18.839Z,97863.41
2023-04-15T12:29:48.168Z,97854.84
2023-04-15T12:32:21.203Z,97853.91
2023-04-15T12:34:55.416Z,97862.78
2023-04-15T12:37:25.165Z,97858.75
2023-04-15T12:39:55.406Z,97853.19
2023-04-15T12:42:24.607Z,97859.06
2023-04-15T12:44:53.778Z,97863.81
2023-04-15T12:47:22.995Z,97862.38
2023-04-15T12:49:52.845Z,97867.94
2023-04-15T12:52:24.325Z,97857.78
2023-04-15T12:54:54.492Z,97876.84
2023-04-15T12:57:23.590Z,97874.88
2023-04-15T12:59:52.711Z,97878.75
2023-04-15T13:02:25.124Z,97875.28
2023-04-15T13:04:55.076Z,97865.44
2023-04-15T13:07:24.105Z,97871.47
2023-04-15T13:09:53.525Z,97870.28
2023-04-15T13:12:23.092Z,97873.81
2023-04-15T13:14:52.293Z,97875.31
2023-04-15T13:17:23.163Z,97869.28
2023-04-15T13:19:52.222Z,97872.94
2023-04-15T13:22:21.536Z,97873.97
2023-04-15T13:24:52.571Z,97879.13
2023-04-15T13:27:22.406Z,97884.28
2023-04-15T13:29:51.465Z,97895.19
2023-04-15T13:32:20.769Z,97897.34
2023-04-15T13:34:50.136Z,97899.47
2023-04-15T13:37:19.439Z,97898.75
2023-04-15T13:39:48.869Z,97896.09
2023-04-15T13:42:18.086Z,97904.50
2023-04-15T13:44:47.220Z,97904.50
2023-04-15T13:47:17.377Z,97907.63
2023-04-15T13:49:46.469Z,97916.25
2023-04-15T13:52:15.806Z,97914.25
2023-04-15T13:54:45.321Z,97911.72
2023-04-15T13:57:15.370Z,97918.44
2023-04-15T14:03:57.866Z,97930.91
2023-04-15T14:06:28.245Z,97926.00
2023-04-15T14:08:58.188Z,97935.59
2023-04-15T14:11:27.260Z,97933.41
2023-04-15T14:13:56.374Z,97944.63
2023-04-15T14:16:25.544Z,97941.88
2023-04-15T14:18:55.363Z,97947.19
2023-04-15T14:21:24.128Z,97950.47
2023-04-15T14:23:53.387Z,97955.38
2023-04-15T14:26:22.173Z,97961.00
2023-04-15T14:28:51.505Z,97959.94
2023-04-15T14:31:21.229Z,97957.75
2023-04-15T14:33:50.577Z,97960.00
2023-04-15T14:36:19.748Z,97972.22
2023-04-15T14:38:48.950Z,97972.50
2023-04-15T14:41:18.344Z,97973.78
2023-04-15T14:43:47.562Z,97975.50
2023-04-15T14:46:17.343Z,97980.44
2023-04-15T14:48:46.545Z,97978.38
2023-04-15T14:51:15.764Z,97983.94
2023-04-15T14:53:44.967Z,97990.09
2023-04-15T14:56:14.159Z,97997.38
2023-04-15T14:58:43.222Z,97985.72
2023-04-15T15:05:03.389Z,97994.00
2023-04-15T15:07:32.589Z,97997.63
2023-04-15T15:10:02.224Z,97990.25
2023-04-15T15:12:31.482Z,97996.41
2023-04-15T15:15:01.581Z,98001.00
2023-04-15T15:17:32.619Z,97999.19
2023-04-15T15:20:01.582Z,97996.97
2023-04-15T15:22:30.630Z,98004.94
2023-04-15T15:25:00.283Z,98002.28
2023-04-15T15:27:29.760Z,98009.22
2023-04-15T15:29:58.918Z,98006.88
2023-04-15T15:32:28.057Z,98002.31
2023-04-15T15:34:56.965Z,98009.59
2023-04-15T15:37:26.258Z,98010.16
2023-04-15T15:39:55.354Z,98009.59
2023-04-15T15:42:24.778Z,98021.31
2023-04-15T15:44:54.277Z,98020.19
2023-04-15T15:47:24.244Z,98021.88
2023-04-15T15:49:53.464Z,98019.50
2023-04-15T15:52:22.694Z,98022.41
2023-04-15T15:54:51.899Z,98013.38
2023-04-15T15:57:20.735Z,98015.88
2023-04-15T15:59:51.177Z,98013.50
2023-04-15T16:02:40.082Z,98012.41
2023-04-15T16:05:13.204Z,98027.44
2023-04-15T16:07:42.375Z,98025.25
2023-04-15T16:10:12.249Z,98030.53
2023-04-15T16:12:42.608Z,98036.75
2023-04-15T16:15:12.052Z,98034.16
2023-04-15T16:17:41.132Z,98036.25
2023-04-15T16:20:10.599Z,98027.16
2023-04-15T16:22:40.355Z,98027.69
2023-04-15T16:25:09.685Z,98031.88
2023-04-15T16:30:12.017Z,98038.56
2023-04-15T16:32:41.241Z,98036.59
2023-04-15T16:35:10.714Z,98037.72
2023-04-15T16:37:39.855Z,98039.09
2023-04-15T16:40:09.473Z,98032.81
2023-04-15T16:42:38.341Z,98039.22
2023-04-15T16:45:07.981Z,98036.84
2023-04-15T16:47:37.045Z,98037.66
2023-04-15T16:50:06.521Z,98045.88
2023-04-15T16:52:35.710Z,98043.50
2023-04-15T16:55:07.514Z,98042.06
2023-04-15T16:58:00.481Z,98039.81
2023-04-15T17:00:26.321Z,98043.97
2023-04-15T17:02:57.259Z,98033.94
2023-04-15T17:05:28.218Z,98037.03
2023-04-15T17:07:57.355Z,98045.09
2023-04-15T17:10:26.290Z,98044.13
2023-04-15T17:12:57.631Z,98045.09
2023-04-15T17:15:26.975Z,98035.63
2023-04-15T17:17:56.020Z,98038.16
2023-04-15T17:20:25.348Z,98037.00
2023-04-15T17:22:54.708Z,98035.88
2023-04-15T17:25:24.480Z,98033.63
2023-04-15T17:27:53.464Z,98031.13
2023-04-15T17:30:22.617Z,98042.75
2023-04-15T17:32:53.115Z,98040.81
2023-04-15T17:35:22.440Z,98039.13
2023-04-15T17:37:51.739Z,98028.72
2023-04-15T17:40:20.851Z,98042.47
2023-04-15T17:42:50.298Z,98034.53
2023-04-15T17:45:19.831Z,98031.91
2023-04-15T17:47:49.712Z,98027.44
2023-04-15T17:50:18.892Z,98031.19
2023-04-15T17:52:49.318Z,98033.28
2023-04-15T17:55:18.458Z,98029.34
2023-04-15T17:57:48.100Z,98029.09
2023-04-15T18:00:18.443Z,98029.41
2023-04-15T18:02:48.049Z,98033.31
2023-04-15T18:05:17.043Z,98036.50
2023-04-15T18:07:46.573Z,98035.81
2023-04-15T18:10:15.619Z,98031.53
2023-04-15T18:12:44.608Z,98026.25
2023-04-15T18:15:15.644Z,98028.44
2023-04-15T18:17:44.948Z,98035.16
2023-04-15T18:20:13.914Z,98035.69
2023-04-15T18:22:44.530Z,98041.34
2023-04-15T18:25:13.675Z,98046.69
2023-04-15T18:27:42.954Z,98036.53
2023-04-15T18:30:13.243Z,98034.16
2023-04-15T18:32:43.264Z,98042.31
2023-04-15T18:35:12.248Z,98033.25
2023-04-15T18:37:41.942Z,98027.69
2023-04-15T18:40:11.636Z,98029.78
2023-04-15T18:42:41.121Z,98024.75
2023-04-15T18:45:10.552Z,98024.00
2023-04-15T18:47:39.828Z,98019.47
2023-04-15T18:50:09.352Z,98027.53
2023-04-15T18:52:38.573Z,98023.47
2023-04-15T18:55:07.971Z,98024.44
2023-04-15T18:57:37.847Z,98029.66
2023-04-15T19:00:07.816Z,98028.38
2023-04-15T19:02:36.971Z,98026.69
2023-04-15T19:05:07.029Z,98027.63
2023-04-15T19:07:37.960Z,98023.69
2023-04-15T19:10:07.829Z,98024.53
2023-04-15T19:12:38.099Z,98029.25
2023-04-15T19:15:49.899Z,98018.06
2023-04-15T19:18:19.498Z,98026.28
2023-04-15T19:20:51.432Z,98012.59
2023-04-15T19:23:20.527Z,98012.47
2023-04-15T19:25:49.585Z,98017.69
2023-04-15T19:28:18.798Z,98009.03
2023-04-15T19:30:47.914Z,98016.84
2023-04-15T19:33:17.183Z,98004.22
2023-04-15T19:35:46.315Z,98012.03
2023-04-15T19:38:15.810Z,98008.31
2023-04-15T19:40:44.926Z,98006.16
2023-04-15T19:43:14.268Z,98011.47
2023-04-15T19:45:43.310Z,98001.03
2023-04-15T19:48:12.486Z,98007.28
2023-04-15T19:50:41.541Z,98010.75
2023-04-15T19:53:10.772Z,98009.94
2023-04-15T19:55:39.707Z,98004.78
2023-04-15T19:58:08.991Z,98005.97
2023-04-15T20:00:39.328Z,97997.97
2023-04-15T20:03:09.410Z,97990.16
2023-04-15T20:05:39.752Z,97997.13
2023-04-15T20:08:09.884Z,97994.25
2023-04-15T20:10:40.181Z,97994.03
2023-04-15T20:13:10.087Z,97997.38
2023-04-15T20:15:40.418Z,97995.69
2023-04-15T20:18:10.402Z,97990.19
2023-04-15T20:20:42.200Z,97992.34
2023-04-15T20:23:13.320Z,97993.31
2023-04-15T20:25:45.716Z,97979.38
2023-04-15T20:28:17.849Z,97979.38
2023-04-15T20:30:49.925Z,97979.63
2023-04-15T20:33:22.578Z,97977.25
2023-04-15T20:35:53.457Z,97981.56
2023-04-15T20:38:25.847Z,97977.97
2023-04-15T20:40:56.669Z,97978.19
2023-04-15T20:43:29.479Z,97979.75
2023-04-15T20:46:07.004Z,97980.84
2023-04-15T20:48:50.079Z,97970.06
2023-04-15T20:51:23.093Z,97972.34
2023-04-15T20:53:54.645Z,97970.56
2023-04-15T20:56:27.836Z,97971.50
2023-04-15T20:58:59.002Z,97971.88
2023-04-15T21:01:32.226Z,97966.47
2023-04-15T21:04:03.484Z,97961.09
2023-04-15T21:06:36.797Z,97961.66
2023-04-15T21:09:08.561Z,97965.47
2023-04-15T21:11:57.356Z,97959.00
2023-04-15T21:14:32.366Z,97961.88
2023-04-15T21:17:11.213Z,97958.06
2023-04-15T21:19:44.048Z,97955.66
2023-04-15T21:22:15.691Z,97950.38
2023-04-15T21:24:47.853Z,97947.63
2023-04-15T21:27:20.191Z,97948.22
2023-04-15T21:29:52.370Z,97943.19
2023-04-15T21:32:24.473Z,97943.81
2023-04-15T21:34:56.117Z,97944.13
2023-04-15T21:37:27.675Z,97934.22
2023-04-15T21:39:59.237Z,97939.84
2023-04-15T21:42:32.377Z,97938.78
2023-04-15T21:45:04.011Z,97939.97
2023-04-15T21:48:05.214Z,97943.53
2023-04-15T21:50:28.231Z,97935.03
2023-04-15T21:52:59.562Z,97941.75
2023-04-15T21:55:32.752Z,97938.88
2023-04-15T21:58:05.911Z,97939.69
2023-04-15T22:00:39.132Z,97942.69
2023-04-15T22:03:13.313Z,97933.09
2023-04-15T22:05:51.270Z,97942.94
2023-04-15T22:08:23.334Z,97943.16
2023-04-15T22:10:55.902Z,97934.78
2023-04-15T22:13:27.620Z,97935.94
2023-04-15T22:15:59.186Z,97934.75
2023-04-15T22:18:31.173Z,97935.84
2023-04-15T22:21:04.369Z,97926.63
2023-04-15T22:23:36.998Z,97928.09
2023-04-15T22:26:10.304Z,97929.25
2023-04-15T22:28:41.527Z,97935.16
2023-04-15T22:31:14.059Z,97931.34
2023-04-15T22:33:45.926Z,97929.66
2023-04-15T22:36:19.409Z,97923.22
2023-04-15T22:38:52.854Z,97927.59
2023-04-15T22:41:25.440Z,97923.94
2023-04-15T22:43:57.438Z,97926.66
2023-04-15T22:46:29.492Z,97927.59
2023-04-15T22:49:01.282Z,97919.56
2023-04-15T22:51:35.700Z,97920.16
2023-04-15T22:54:07.709Z,97922.94
2023-04-15T22:56:40.303Z,97919.44
2023-04-15T22:59:11.596Z,97917.72
2023-04-15T23:01:43.915Z,97924.03
2023-04-15T23:04:23.572Z,97913.28
2023-04-15T23:07:01.165Z,97919.13
2023-04-15T23:09:32.666Z,97924.50
2023-04-15T23:12:06.318Z,97918.78
2023-04-15T23:14:37.507Z,97932.94
2023-04-15T23:17:09.469Z,97935.34
2023-04-15T23:19:42.005Z,97924.00
2023-04-15T23:22:14.227Z,97945.44
2023-04-15T23:24:46.742Z,97949.44
2023-04-15T23:27:20.112Z,97950.31
2023-04-15T23:29:52.997Z,97948.97
2023-04-15T23:32:26.729Z,97954.53
2023-04-15T23:34:58.533Z,97967.69
2023-04-15T23:37:30.386Z,97979.84
2023-04-15T23:40:01.555Z,97973.13
2023-04-15T23:42:34.390Z,97978.84
2023-04-15T23:45:06.313Z,97972.78
2023-04-15T23:47:38.935Z,97974.91
2023-04-15T23:50:12.520Z,97956.88
2023-04-15T23:52:44.575Z,97971.78
2023-04-15T23:55:16.352Z,97966.94
2023-04-15T23:57:48.940Z,97975.69
